createdAt,value
2023-12-29T00:00:08.011Z,8.75
2023-12-29T00:02:36.332Z,8.75
2023-12-29T00:05:05.415Z,8.76
2023-12-29T00:07:33.964Z,8.76
2023-12-29T00:10:02.487Z,8.74
2023-12-29T00:12:30.886Z,8.75
2023-12-29T00:14:59.346Z,8.75
2023-12-29T00:17:29.268Z,8.76
2023-12-29T00:19:57.776Z,8.77
2023-12-29T00:22:28.844Z,8.78
2023-12-29T00:24:57.542Z,8.78
2023-12-29T00:27:25.881Z,8.75
2023-12-29T00:29:54.249Z,8.72
2023-12-29T00:32:23.426Z,8.65
2023-12-29T00:34:53.355Z,8.62
2023-12-29T00:37:21.908Z,8.55
2023-12-29T00:39:50.328Z,8.51
2023-12-29T00:42:18.685Z,8.47
2023-12-29T00:44:46.933Z,8.50
2023-12-29T00:47:15.408Z,8.54
2023-12-29T00:49:43.891Z,8.52
2023-12-29T00:52:14.023Z,8.46
2023-12-29T00:54:43.682Z,8.44
2023-12-29T00:57:12.081Z,8.46
2023-12-29T00:59:41.246Z,8.47
2023-12-29T01:02:10.053Z,8.46
2023-12-29T01:04:40.463Z,8.43
2023-12-29T01:07:09.032Z,8.44
2023-12-29T01:09:41.709Z,8.47
2023-12-29T01:12:10.197Z,8.46
2023-12-29T01:14:38.471Z,8.47
2023-12-29T01:17:07.174Z,8.50
2023-12-29T01:19:36.055Z,8.52
2023-12-29T01:22:04.642Z,8.46
2023-12-29T01:24:40.161Z,8.37
2023-12-29T01:27:15.316Z,8.34
2023-12-29T01:29:43.760Z,8.34
2023-12-29T01:32:12.121Z,8.30
2023-12-29T01:34:40.920Z,8.25
2023-12-29T01:37:09.521Z,8.28
2023-12-29T01:39:38.047Z,8.30
2023-12-29T01:42:06.900Z,8.31
2023-12-29T01:44:36.650Z,8.25
2023-12-29T01:47:07.601Z,8.18
2023-12-29T01:49:36.794Z,8.14
2023-12-29T01:52:06.068Z,8.16
2023-12-29T01:54:39.622Z,8.19
2023-12-29T01:57:09.686Z,8.19
2023-12-29T01:59:40.175Z,8.19
2023-12-29T02:02:09.040Z,8.19
2023-12-29T02:04:39.694Z,8.20
2023-12-29T02:07:08.272Z,8.20
2023-12-29T02:09:37.469Z,8.25
2023-12-29T02:12:06.445Z,8.28
2023-12-29T02:14:35.231Z,8.32
2023-12-29T02:17:13.732Z,8.29
2023-12-29T02:19:45.951Z,8.29
2023-12-29T02:22:15.468Z,8.32
2023-12-29T02:24:48.746Z,8.36
2023-12-29T02:27:36.812Z,8.32
2023-12-29T02:30:13.113Z,8.28
2023-12-29T02:32:44.170Z,8.27
2023-12-29T02:35:19.872Z,8.36
2023-12-29T02:37:49.640Z,8.40
2023-12-29T02:40:20.891Z,8.46
2023-12-29T02:42:49.866Z,8.50
2023-12-29T02:45:18.442Z,8.51
2023-12-29T02:47:47.350Z,8.53
2023-12-29T02:50:16.119Z,8.56
2023-12-29T02:52:44.389Z,8.57
2023-12-29T02:55:13.136Z,8.62
2023-12-29T02:57:43.052Z,8.66
2023-12-29T03:00:11.991Z,8.70
2023-12-29T03:02:40.301Z,8.72
2023-12-29T03:05:09.631Z,8.73
2023-12-29T03:07:38.056Z,8.79
2023-12-29T03:10:07.283Z,8.80
2023-12-29T03:12:35.823Z,8.85
2023-12-29T03:15:06.443Z,8.89
2023-12-29T03:17:36.054Z,8.82
2023-12-29T03:20:06.334Z,8.73
2023-12-29T03:22:34.789Z,8.71
2023-12-29T03:25:03.065Z,8.66
2023-12-29T03:27:31.342Z,8.56
2023-12-29T03:29:59.848Z,8.44
2023-12-29T03:32:29.686Z,8.37
2023-12-29T03:34:58.015Z,8.29
2023-12-29T03:37:26.287Z,8.26
2023-12-29T03:39:54.720Z,8.23
2023-12-29T03:42:23.061Z,8.19
2023-12-29T03:44:51.436Z,8.19
2023-12-29T03:47:19.698Z,8.15
2023-12-29T03:49:49.440Z,8.15
2023-12-29T03:52:17.748Z,8.14
2023-12-29T03:54:46.087Z,8.10
2023-12-29T03:57:14.655Z,8.08
2023-12-29T03:59:43.036Z,8.07
2023-12-29T04:02:11.562Z,8.07
2023-12-29T04:04:40.765Z,8.05
2023-12-29T04:07:10.582Z,8.02
2023-12-29T04:09:38.987Z,8.03
2023-12-29T04:12:08.015Z,8.06
2023-12-29T04:14:36.377Z,8.09
2023-12-29T04:17:06.521Z,8.14
2023-12-29T04:19:35.190Z,8.19
2023-12-29T04:22:03.617Z,8.21
2023-12-29T04:24:33.609Z,8.25
2023-12-29T04:27:02.368Z,8.26
2023-12-29T04:29:30.690Z,8.30
2023-12-29T04:31:59.135Z,8.32
2023-12-29T04:34:27.519Z,8.34
2023-12-29T04:36:55.937Z,8.33
2023-12-29T04:39:24.243Z,8.26
2023-12-29T04:41:54.211Z,8.20
2023-12-29T04:44:22.426Z,8.16
2023-12-29T04:46:50.773Z,8.20
2023-12-29T04:49:19.346Z,8.21
2023-12-29T04:51:49.768Z,8.19
2023-12-29T04:54:18.133Z,8.19
2023-12-29T04:56:46.456Z,8.18
2023-12-29T04:59:16.215Z,8.17
2023-12-29T05:01:44.810Z,8.17
2023-12-29T05:04:13.232Z,8.22
2023-12-29T05:06:41.668Z,8.25
2023-12-29T05:09:09.981Z,8.31
2023-12-29T05:11:38.613Z,8.34
2023-12-29T05:14:06.929Z,8.28
2023-12-29T05:16:36.649Z,8.38
2023-12-29T05:19:05.363Z,8.32
2023-12-29T05:21:33.716Z,8.35
2023-12-29T05:24:02.225Z,8.37
2023-12-29T05:26:30.531Z,8.39
2023-12-29T05:28:58.807Z,8.41
2023-12-29T05:31:30.115Z,8.43
2023-12-29T05:34:00.029Z,8.44
2023-12-29T05:36:28.375Z,8.45
2023-12-29T05:38:58.405Z,8.44
2023-12-29T05:41:26.927Z,8.45
2023-12-29T05:43:55.273Z,8.40
2023-12-29T05:46:23.669Z,8.33
2023-12-29T05:48:53.765Z,8.32
2023-12-29T05:51:24.815Z,8.34
2023-12-29T05:53:53.144Z,8.33
2023-12-29T05:56:22.686Z,8.36
2023-12-29T05:58:51.277Z,8.32
2023-12-29T06:01:19.569Z,8.30
2023-12-29T06:03:47.892Z,8.28
2023-12-29T06:06:16.336Z,8.31
2023-12-29T06:08:46.180Z,8.32
2023-12-29T06:11:18.251Z,8.31
2023-12-29T06:13:46.703Z,8.27
2023-12-29T06:16:20.745Z,8.26
2023-12-29T06:18:49.549Z,8.28
2023-12-29T06:21:18.050Z,8.28
2023-12-29T06:23:47.821Z,8.33
2023-12-29T06:26:19.778Z,8.31
2023-12-29T06:28:48.384Z,8.28
2023-12-29T06:31:17.152Z,8.25
2023-12-29T06:33:46.041Z,8.27
2023-12-29T06:36:15.234Z,8.30
2023-12-29T06:38:47.186Z,8.30
2023-12-29T06:41:16.958Z,8.35
2023-12-29T06:43:45.262Z,8.40
2023-12-29T06:48:43.831Z,8.41
2023-12-29T06:51:17.852Z,8.39
2023-12-29T06:53:46.165Z,8.38
2023-12-29T06:56:17.004Z,8.39
2023-12-29T06:58:46.005Z,8.37
2023-12-29T07:01:14.575Z,8.33
2023-12-29T07:03:43.124Z,8.23
2023-12-29T07:06:12.405Z,8.20
2023-12-29T07:08:40.753Z,8.15
2023-12-29T07:11:12.814Z,8.10
2023-12-29T07:13:42.958Z,8.08
2023-12-29T07:16:11.648Z,8.07
2023-12-29T07:18:40.164Z,8.06
2023-12-29T07:21:08.634Z,8.08
2023-12-29T07:23:36.894Z,8.07
2023-12-29T07:26:05.924Z,8.03
2023-12-29T07:28:34.624Z,7.95
2023-12-29T07:31:05.295Z,7.85
2023-12-29T07:33:34.075Z,7.70
2023-12-29T07:36:02.684Z,7.51
2023-12-29T07:38:31.029Z,7.45
2023-12-29T07:40:59.550Z,7.43
2023-12-29T07:43:27.822Z,7.37
2023-12-29T07:45:56.106Z,7.39
2023-12-29T07:48:26.029Z,7.40
2023-12-29T07:50:54.410Z,7.48
2023-12-29T07:53:22.728Z,7.49
2023-12-29T07:55:51.591Z,7.51
2023-12-29T07:58:19.910Z,7.51
2023-12-29T08:00:48.848Z,7.48
2023-12-29T08:03:17.464Z,7.40
2023-12-29T08:05:48.240Z,7.41
2023-12-29T08:08:16.803Z,7.48
2023-12-29T08:10:45.337Z,7.52
2023-12-29T08:13:13.721Z,7.61
2023-12-29T08:15:42.436Z,7.69
2023-12-29T08:18:10.859Z,7.76
2023-12-29T08:20:39.253Z,7.82
2023-12-29T08:23:09.136Z,7.83
2023-12-29T08:25:38.324Z,7.87
2023-12-29T08:28:07.860Z,7.92
2023-12-29T08:30:38.635Z,7.95
2023-12-29T08:33:07.314Z,7.95
2023-12-29T08:35:35.567Z,7.95
2023-12-29T08:38:03.888Z,7.92
2023-12-29T08:40:33.696Z,7.94
2023-12-29T08:43:02.767Z,7.96
2023-12-29T08:45:31.372Z,7.89
2023-12-29T08:48:00.223Z,7.88
2023-12-29T08:50:28.661Z,7.96
2023-12-29T08:52:56.895Z,7.97
2023-12-29T08:55:25.320Z,8.02
2023-12-29T08:57:55.944Z,8.05
2023-12-29T09:00:24.398Z,8.05
2023-12-29T09:02:52.632Z,8.07
2023-12-29T09:05:20.967Z,8.15
2023-12-29T09:07:49.150Z,8.19
2023-12-29T09:10:17.422Z,8.23
2023-12-29T09:12:45.728Z,8.30
2023-12-29T09:15:15.430Z,8.36
2023-12-29T09:17:43.724Z,8.35
2023-12-29T09:20:12.848Z,8.37
2023-12-29T09:22:41.232Z,8.40
2023-12-29T09:25:10.197Z,8.44
2023-12-29T09:27:38.741Z,8.39
2023-12-29T09:30:08.557Z,8.32
2023-12-29T09:32:39.055Z,8.32
2023-12-29T09:35:07.745Z,8.33
2023-12-29T09:37:36.050Z,8.29
2023-12-29T09:40:04.839Z,8.30
2023-12-29T09:42:34.230Z,8.37
2023-12-29T09:45:05.113Z,8.39
2023-12-29T09:47:37.329Z,8.44
2023-12-29T09:50:08.301Z,8.45
2023-12-29T09:52:37.887Z,8.49
2023-12-29T09:55:07.471Z,8.54
2023-12-29T09:57:35.808Z,8.60
2023-12-29T10:00:04.886Z,8.62
2023-12-29T10:02:33.500Z,8.53
2023-12-29T10:05:05.414Z,8.62
2023-12-29T10:07:39.106Z,8.66
2023-12-29T10:10:08.931Z,8.69
2023-12-29T10:12:39.542Z,8.61
2023-12-29T10:15:16.782Z,8.62
2023-12-29T10:17:54.245Z,8.68
2023-12-29T10:20:39.847Z,8.73
2023-12-29T10:23:15.512Z,8.78
2023-12-29T10:25:43.762Z,8.81
2023-12-29T10:28:12.567Z,8.80
2023-12-29T10:30:41.828Z,8.75
2023-12-29T10:33:11.102Z,8.76
2023-12-29T10:35:40.464Z,8.81
2023-12-29T10:38:14.581Z,8.86
2023-12-29T10:40:44.374Z,8.85
2023-12-29T10:43:12.930Z,8.89
2023-12-29T10:45:41.364Z,8.99
2023-12-29T10:48:10.655Z,9.08
2023-12-29T10:50:47.015Z,9.12
2023-12-29T10:53:18.864Z,9.19
2023-12-29T10:55:47.516Z,9.27
2023-12-29T10:58:19.254Z,9.29
2023-12-29T11:00:47.841Z,9.30
2023-12-29T11:03:18.086Z,9.36
2023-12-29T11:05:46.523Z,9.40
2023-12-29T11:08:20.044Z,9.44
2023-12-29T11:10:50.643Z,9.46
2023-12-29T11:13:20.785Z,9.50
2023-12-29T11:15:50.495Z,9.56
2023-12-29T11:18:20.458Z,9.62
2023-12-29T11:20:49.166Z,9.64
2023-12-29T11:23:19.340Z,9.63
2023-12-29T11:25:48.253Z,9.56
2023-12-29T11:28:16.996Z,9.51
2023-12-29T11:30:45.641Z,9.53
2023-12-29T11:33:20.279Z,9.56
2023-12-29T11:35:53.724Z,9.57
2023-12-29T11:38:47.507Z,9.63
2023-12-29T11:41:24.007Z,9.66
2023-12-29T11:43:59.971Z,9.72
2023-12-29T11:46:38.564Z,9.78
2023-12-29T11:49:07.449Z,9.86
2023-12-29T11:51:38.086Z,9.96
2023-12-29T11:54:09.550Z,10.02
2023-12-29T11:56:39.698Z,10.06
2023-12-29T11:59:21.865Z,10.10
2023-12-29T12:01:51.797Z,10.16
2023-12-29T12:04:41.867Z,10.23
2023-12-29T12:07:15.443Z,10.30
2023-12-29T12:09:45.659Z,10.31
2023-12-29T12:12:14.887Z,10.30
2023-12-29T12:14:47.245Z,10.31
2023-12-29T12:17:30.006Z,10.34
2023-12-29T12:20:01.016Z,10.39
2023-12-29T12:22:34.054Z,10.47
2023-12-29T12:25:06.052Z,10.53
2023-12-29T12:27:34.497Z,10.58
2023-12-29T12:30:02.914Z,10.62
2023-12-29T12:32:32.110Z,10.65
2023-12-29T12:35:00.700Z,10.70
2023-12-29T12:37:30.896Z,10.74
2023-12-29T12:39:59.332Z,10.77
2023-12-29T12:42:29.645Z,10.83
2023-12-29T12:45:05.684Z,10.88
2023-12-29T12:47:37.485Z,10.93
2023-12-29T12:50:08.414Z,10.96
2023-12-29T12:52:38.765Z,11.02
2023-12-29T12:55:08.996Z,11.05
2023-12-29T12:57:39.506Z,11.07
2023-12-29T13:00:10.572Z,11.11
2023-12-29T13:02:39.760Z,11.12
2023-12-29T13:05:09.723Z,11.13
2023-12-29T13:07:38.284Z,11.15
2023-12-29T13:10:08.250Z,11.16
2023-12-29T13:12:36.650Z,11.16
2023-12-29T13:15:11.344Z,11.16
2023-12-29T13:17:39.672Z,11.19
2023-12-29T13:20:09.449Z,11.20
2023-12-29T13:22:38.562Z,11.25
2023-12-29T13:25:09.657Z,11.30
2023-12-29T13:27:41.371Z,11.36
2023-12-29T13:30:13.688Z,11.42
2023-12-29T13:32:43.023Z,11.51
2023-12-29T13:35:19.212Z,11.55
2023-12-29T13:37:54.183Z,11.64
2023-12-29T13:40:28.956Z,11.65
2023-12-29T13:43:02.426Z,11.64
2023-12-29T13:45:33.569Z,11.70
2023-12-29T13:48:04.342Z,11.76
2023-12-29T13:50:32.879Z,11.80
2023-12-29T13:53:01.043Z,11.87
2023-12-29T13:55:29.990Z,11.91
2023-12-29T13:57:58.449Z,11.97
2023-12-29T14:00:30.257Z,11.99
2023-12-29T14:03:08.524Z,12.01
2023-12-29T14:05:41.906Z,12.04
2023-12-29T14:08:20.002Z,12.02
2023-12-29T14:10:49.127Z,12.04
2023-12-29T14:13:19.216Z,12.05
2023-12-29T14:15:53.101Z,12.10
2023-12-29T14:18:48.126Z,12.11
2023-12-29T14:21:26.738Z,12.12
2023-12-29T14:24:11.908Z,12.11
2023-12-29T14:26:41.748Z,12.13
2023-12-29T14:29:11.479Z,12.11
2023-12-29T14:31:41.822Z,12.11
2023-12-29T14:34:13.106Z,12.14
2023-12-29T14:36:42.860Z,12.12
2023-12-29T14:39:12.659Z,12.12
2023-12-29T14:41:41.723Z,12.13
2023-12-29T14:44:10.246Z,12.14
2023-12-29T14:46:39.201Z,12.14
2023-12-29T14:49:09.052Z,12.12
2023-12-29T14:51:39.129Z,12.11
2023-12-29T14:54:08.116Z,12.10
2023-12-29T14:56:36.476Z,12.08
2023-12-29T14:59:07.104Z,12.11
2023-12-29T15:01:36.010Z,12.10
2023-12-29T15:04:05.556Z,12.06
2023-12-29T15:06:33.999Z,12.05
2023-12-29T15:09:04.421Z,12.02
2023-12-29T15:11:32.685Z,12.01
2023-12-29T15:14:00.911Z,11.99
2023-12-29T15:16:29.268Z,11.98
2023-12-29T15:18:57.789Z,11.95
2023-12-29T15:21:26.452Z,11.98
2023-12-29T15:23:55.273Z,11.96
2023-12-29T15:26:25.060Z,11.98
2023-12-29T15:28:53.567Z,11.99
2023-12-29T15:31:21.966Z,11.99
2023-12-29T15:33:50.418Z,12.02
2023-12-29T15:36:21.958Z,12.03
2023-12-29T15:38:50.398Z,12.03
2023-12-29T15:41:18.618Z,12.02
2023-12-29T15:43:48.123Z,11.99
2023-12-29T15:46:16.768Z,11.97
2023-12-29T15:48:45.556Z,11.96
2023-12-29T15:51:15.027Z,11.96
2023-12-29T15:53:43.186Z,11.94
2023-12-29T15:56:19.664Z,11.90
2023-12-29T15:58:49.687Z,11.90
2023-12-29T16:01:26.918Z,11.85
2023-12-29T16:03:55.417Z,11.75
2023-12-29T16:06:24.656Z,11.74
2023-12-29T16:08:55.540Z,11.76
2023-12-29T16:11:25.197Z,11.72
2023-12-29T16:13:55.756Z,11.66
2023-12-29T16:16:28.587Z,11.65
2023-12-29T16:18:56.788Z,11.59
2023-12-29T16:21:25.115Z,11.58
2023-12-29T16:23:53.391Z,11.53
2023-12-29T16:26:28.041Z,11.47
2023-12-29T16:29:05.713Z,11.46
2023-12-29T16:31:35.015Z,11.44
2023-12-29T16:34:03.401Z,11.45
2023-12-29T16:36:32.365Z,11.48
2023-12-29T16:39:00.610Z,11.49
2023-12-29T16:41:28.807Z,11.49
2023-12-29T16:43:57.818Z,11.44
2023-12-29T16:46:27.510Z,11.39
2023-12-29T16:48:55.838Z,11.34
2023-12-29T16:51:24.174Z,11.31
2023-12-29T16:53:52.409Z,11.30
2023-12-29T16:56:20.678Z,11.30
2023-12-29T16:58:48.970Z,11.31
2023-12-29T17:01:19.052Z,11.29
2023-12-29T17:03:49.097Z,11.25
2023-12-29T17:06:17.443Z,11.23
2023-12-29T17:08:45.711Z,11.22
2023-12-29T17:11:14.045Z,11.21
2023-12-29T17:13:42.364Z,11.16
2023-12-29T17:16:12.868Z,11.16
2023-12-29T17:18:41.715Z,11.19
2023-12-29T17:21:12.836Z,11.20
2023-12-29T17:23:41.035Z,11.19
2023-12-29T17:26:15.577Z,11.17
2023-12-29T17:28:43.896Z,11.14
2023-12-29T17:31:12.964Z,11.16
2023-12-29T17:33:41.923Z,11.19
2023-12-29T17:36:12.126Z,11.16
2023-12-29T17:38:43.038Z,11.12
2023-12-29T17:41:12.368Z,11.08
2023-12-29T17:43:40.598Z,11.11
2023-12-29T17:46:09.947Z,11.09
2023-12-29T17:48:38.315Z,11.08
2023-12-29T17:51:08.595Z,11.06
2023-12-29T17:53:38.697Z,11.00
2023-12-29T17:56:08.562Z,10.89
2023-12-29T17:58:38.369Z,10.78
2023-12-29T18:01:06.827Z,10.74
2023-12-29T18:03:35.254Z,10.66
2023-12-29T18:06:07.447Z,10.57
2023-12-29T18:08:35.746Z,10.54
2023-12-29T18:11:07.283Z,10.52
2023-12-29T18:13:36.545Z,10.47
2023-12-29T18:16:10.641Z,10.43
2023-12-29T18:18:40.223Z,10.41
2023-12-29T18:21:09.787Z,10.42
2023-12-29T18:23:37.914Z,10.41
2023-12-29T18:26:07.635Z,10.39
2023-12-29T18:28:39.186Z,10.37
2023-12-29T18:31:07.590Z,10.34
2023-12-29T18:33:37.783Z,10.38
2023-12-29T18:36:07.149Z,10.41
2023-12-29T18:38:35.724Z,10.44
2023-12-29T18:41:08.847Z,10.44
2023-12-29T18:43:37.562Z,10.37
2023-12-29T18:46:06.673Z,10.32
2023-12-29T18:48:35.201Z,10.25
2023-12-29T18:51:04.377Z,10.20
2023-12-29T18:53:32.753Z,10.17
2023-12-29T18:56:00.949Z,10.12
2023-12-29T18:58:30.704Z,10.08
2023-12-29T19:01:04.278Z,10.08
2023-12-29T19:03:33.700Z,10.12
2023-12-29T19:06:01.875Z,10.16
2023-12-29T19:08:30.234Z,10.25
2023-12-29T19:10:58.807Z,10.24
2023-12-29T19:13:27.196Z,10.29
2023-12-29T19:16:03.758Z,10.32
2023-12-29T19:18:32.136Z,10.34
2023-12-29T19:21:00.629Z,10.34
2023-12-29T19:23:29.669Z,10.27
2023-12-29T19:25:57.920Z,10.18
2023-12-29T19:28:27.259Z,10.12
2023-12-29T19:30:55.579Z,10.09
2023-12-29T19:33:25.517Z,10.05
2023-12-29T19:35:55.350Z,10.05
2023-12-29T19:38:24.302Z,10.05
2023-12-29T19:40:54.303Z,10.11
2023-12-29T19:43:23.406Z,10.20
2023-12-29T19:45:51.677Z,10.26
2023-12-29T19:48:19.986Z,10.31
2023-12-29T19:50:49.676Z,10.33
2023-12-29T19:53:20.700Z,10.35
2023-12-29T19:55:50.709Z,10.31
2023-12-29T19:58:18.991Z,10.27
2023-12-29T20:00:47.534Z,10.27
2023-12-29T20:03:15.856Z,10.23
2023-12-29T20:05:44.640Z,10.21
2023-12-29T20:08:14.538Z,10.17
2023-12-29T20:10:42.707Z,10.07
2023-12-29T20:13:11.619Z,10.02
2023-12-29T20:15:40.088Z,9.98
2023-12-29T20:18:08.433Z,9.93
2023-12-29T20:20:36.767Z,9.91
2023-12-29T20:23:05.394Z,9.90
2023-12-29T20:25:35.057Z,9.92
2023-12-29T20:28:03.919Z,9.95
2023-12-29T20:30:32.332Z,10.01
2023-12-29T20:33:01.761Z,10.01
2023-12-29T20:35:30.154Z,10.02
2023-12-29T20:37:58.269Z,10.06
2023-12-29T20:40:28.026Z,10.08
2023-12-29T20:42:57.868Z,10.06
2023-12-29T20:45:26.072Z,10.00
2023-12-29T20:47:54.898Z,9.95
2023-12-29T20:50:23.257Z,9.93
2023-12-29T20:52:51.417Z,9.85
2023-12-29T20:55:19.650Z,9.78
2023-12-29T20:57:47.894Z,9.78
2023-12-29T21:00:18.571Z,9.75
2023-12-29T21:02:47.061Z,9.72
2023-12-29T21:05:18.042Z,9.65
2023-12-29T21:07:47.874Z,9.60
2023-12-29T21:10:16.349Z,9.57
2023-12-29T21:12:44.609Z,9.61
2023-12-29T21:15:13.180Z,9.65
2023-12-29T21:17:43.021Z,9.68
2023-12-29T21:20:14.755Z,9.68
2023-12-29T21:22:44.570Z,9.63
2023-12-29T21:25:13.080Z,9.64
2023-12-29T21:27:41.813Z,9.67
2023-12-29T21:30:12.730Z,9.70
2023-12-29T21:32:43.398Z,9.75
2023-12-29T21:35:11.817Z,9.76
2023-12-29T21:37:40.458Z,9.74
2023-12-29T21:40:10.063Z,9.67
2023-12-29T21:42:39.243Z,9.63
2023-12-29T21:45:11.254Z,9.60
2023-12-29T21:47:42.511Z,9.55
2023-12-29T21:50:13.029Z,9.49
2023-12-29T21:52:41.557Z,9.57
2023-12-29T21:55:09.960Z,9.54
2023-12-29T21:57:38.309Z,9.51
2023-12-29T22:00:08.310Z,9.52
2023-12-29T22:02:36.521Z,9.52
2023-12-29T22:05:05.290Z,9.45
2023-12-29T22:07:36.758Z,9.42
2023-12-29T22:10:06.634Z,9.36
2023-12-29T22:12:34.868Z,9.32
2023-12-29T22:15:03.152Z,9.30
2023-12-29T22:17:31.314Z,9.32
2023-12-29T22:19:59.809Z,9.34
2023-12-29T22:22:28.134Z,9.38
2023-12-29T22:24:57.874Z,9.40
2023-12-29T22:27:27.107Z,9.42
2023-12-29T22:29:55.390Z,9.43
2023-12-29T22:32:23.788Z,9.37
2023-12-29T22:34:51.997Z,9.33
2023-12-29T22:37:20.298Z,9.23
2023-12-29T22:39:48.560Z,9.14
2023-12-29T22:42:18.219Z,9.07
2023-12-29T22:44:46.382Z,8.94
2023-12-29T22:47:14.576Z,8.93
2023-12-29T22:49:42.794Z,8.91
2023-12-29T22:52:10.996Z,8.90
2023-12-29T22:54:39.131Z,8.85
2023-12-29T22:57:07.371Z,8.83
2023-12-29T22:59:38.567Z,8.80
2023-12-29T23:02:07.171Z,8.74
2023-12-29T23:04:35.596Z,8.69
2023-12-29T23:07:04.677Z,8.71
2023-12-29T23:09:36.097Z,8.68
2023-12-29T23:12:05.185Z,8.59
2023-12-29T23:14:33.860Z,8.49
2023-12-29T23:17:07.957Z,8.40
2023-12-29T23:19:37.091Z,8.30
2023-12-29T23:22:05.572Z,8.27
2023-12-29T23:24:33.769Z,8.31
2023-12-29T23:27:02.169Z,8.31
2023-12-29T23:29:30.328Z,8.29
2023-12-29T23:31:58.433Z,8.34
2023-12-29T23:34:28.355Z,8.41
2023-12-29T23:36:56.759Z,8.48
2023-12-29T23:39:24.965Z,8.52
2023-12-29T23:41:53.279Z,8.57
2023-12-29T23:44:21.611Z,8.60
2023-12-29T23:46:49.736Z,8.57
2023-12-29T23:49:18.052Z,8.52
2023-12-29T23:51:47.879Z,8.52
2023-12-29T23:54:16.476Z,8.54
2023-12-29T23:56:44.819Z,8.57
2023-12-29T23:59:12.971Z,8.60
